TimeCDT,TemperatureF,Dew PointF,Humidity,Sea Level PressureIn,VisibilityMPH,Wind Direction,Wind SpeedMPH,Gust SpeedMPH,PrecipitationIn,Events,Conditions,WindDirDegrees,DateUTC
12:15 AM,73.6,72.0,95,29.95,10.0,Calm,Calm,-,N/A,,Clear,0,2014-08-10 05:15:00
12:35 AM,72.9,71.6,96,29.95,10.0,Calm,Calm,-,N/A,,Clear,0,2014-08-10 05:35:00
12:55 AM,72.9,72.1,98,29.95,10.0,Calm,Calm,-,N/A,,Clear,0,2014-08-10 05:55:00
1:15 AM,73.2,72.3,97,29.95,10.0,Calm,Calm,-,N/A,,Clear,0,2014-08-10 06:15:00
1:35 AM,72.7,71.4,96,29.95,10.0,Calm,Calm,-,N/A,,Clear,0,2014-08-10 06:35:00
1:55 AM,72.5,71.6,97,29.96,10.0,Calm,Calm,-,N/A,,Clear,0,2014-08-10 06:55:00
2:15 AM,72.5,71.8,98,29.96,10.0,Calm,Calm,-,N/A,,Clear,0,2014-08-10 07:15:00
2:35 AM,72.0,71.4,98,29.97,10.0,Calm,Calm,-,N/A,,Clear,0,2014-08-10 07:35:00
2:55 AM,72.1,71.4,98,29.97,10.0,East,3.5,-,N/A,,Clear,100,2014-08-10 07:55:00
3:15 AM,73.4,71.6,94,29.97,10.0,ESE,3.5,-,N/A,,Clear,110,2014-08-10 08:15:00
3:35 AM,73.8,71.6,93,29.97,10.0,ESE,3.5,-,N/A,,Clear,110,2014-08-10 08:35:00
3:55 AM,73.6,71.6,93,29.97,10.0,Calm,Calm,-,N/A,,Clear,0,2014-08-10 08:55:00
4:15 AM,73.6,71.2,92,29.97,10.0,ESE,3.5,-,N/A,,Clear,120,2014-08-10 09:15:00
4:35 AM,73.4,71.2,93,29.97,10.0,Calm,Calm,-,N/A,,Clear,0,2014-08-10 09:35:00
4:55 AM,73.0,71.1,93,29.97,10.0,Calm,Calm,-,N/A,,Clear,0,2014-08-10 09:55:00
5:15 AM,72.7,71.1,95,29.97,10.0,SE,3.5,-,N/A,,Scattered Clouds,130,2014-08-10 10:15:00
5:35 AM,72.9,71.1,94,29.97,10.0,Calm,Calm,-,N/A,,Clear,0,2014-08-10 10:35:00
5:55 AM,72.7,71.1,95,29.97,10.0,Calm,Calm,-,N/A,,Scattered Clouds,0,2014-08-10 10:55:00
6:15 AM,72.5,71.1,95,29.97,10.0,Calm,Calm,-,N/A,,Scattered Clouds,0,2014-08-10 11:15:00
6:35 AM,72.7,71.4,96,29.98,10.0,Calm,Calm,-,N/A,,Clear,0,2014-08-10 11:35:00
6:55 AM,73.4,71.6,94,29.98,10.0,Calm,Calm,-,N/A,,Mostly Cloudy,0,2014-08-10 11:55:00
7:55 AM,75.2,71.6,89,30.01,10.0,Calm,Calm,-,N/A,,Mostly Cloudy,0,2014-08-10 12:55:00
8:55 AM,78.8,73.4,83,30.02,10.0,ESE,5.8,-,N/A,,Clear,120,2014-08-10 13:55:00
9:55 AM,80.6,75.2,84,30.00,10.0,SE,5.8,-,N/A,,Clear,140,2014-08-10 14:55:00
10:55 AM,84.2,75.2,74,30.01,10.0,SE,5.8,-,N/A,,Clear,140,2014-08-10 15:55:00
11:55 AM,87.8,73.4,62,30.02,10.0,South,5.8,-,N/A,,Clear,170,2014-08-10 16:55:00
12:55 PM,91.4,73.4,55,30.00,10.0,South,5.8,-,N/A,,Clear,190,2014-08-10 17:55:00
1:55 PM,91.4,71.6,52,30.00,10.0,WSW,8.1,-,N/A,,Scattered Clouds,250,2014-08-10 18:55:00
2:55 PM,-9999,-9999,N/A,29.98,10.0,WNW,3.5,-,N/A,,Mostly Cloudy,290,2014-08-10 19:55:00
3:55 PM,96.8,71.6,44,29.94,10.0,WSW,4.6,-,N/A,,Clear,250,2014-08-10 20:55:00
4:55 PM,93.2,73.4,52,29.94,10.0,South,4.6,-,N/A,,Clear,180,2014-08-10 21:55:00
10:15 PM,79.5,73.2,81,30.00,10.0,Calm,Calm,-,N/A,,Clear,0,2014-08-11 03:15:00
10:55 PM,78.6,73.9,85,30.00,10.0,Calm,Calm,-,N/A,,Clear,0,2014-08-11 03:55:00
11:15 PM,79.0,73.4,83,30.01,10.0,WNW,3.5,-,N/A,,Clear,300,2014-08-11 04:15:00
11:35 PM,79.0,72.9,81,30.02,10.0,WNW,4.6,-,N/A,,Clear,290,2014-08-11 04:35:00
11:55 PM,78.4,72.9,83,30.02,10.0,West,4.6,-,N/A,,Clear,280,2014-08-11 04:55:00